createdAt,value
2023-05-19T00:00:17.131Z,102452.69
2023-05-19T00:02:46.448Z,102452.63
2023-05-19T00:05:18.706Z,102460.47
2023-05-19T00:07:49.090Z,102458.63
2023-05-19T00:10:19.293Z,102461.16
2023-05-19T00:12:52.473Z,102457.50
2023-05-19T00:15:22.821Z,102465.38
2023-05-19T00:17:52.409Z,102463.59
2023-05-19T00:20:20.997Z,102472.22
2023-05-19T00:22:51.129Z,102480.88
2023-05-19T00:25:19.571Z,102472.00
2023-05-19T00:27:50.624Z,102481.56
2023-05-19T00:30:19.280Z,102484.16
2023-05-19T00:32:47.619Z,102477.97
2023-05-19T00:35:16.533Z,102477.13
2023-05-19T00:37:44.975Z,102494.63
2023-05-19T00:40:13.745Z,102485.75
2023-05-19T00:42:42.614Z,102485.75
2023-05-19T00:45:12.544Z,102482.13
2023-05-19T00:47:41.001Z,102494.31
2023-05-19T00:50:10.114Z,102480.06
2023-05-19T00:52:38.359Z,102505.59
2023-05-19T00:55:08.146Z,102509.81
2023-05-19T00:57:36.528Z,102505.28
2023-05-19T01:00:05.910Z,102507.72
2023-05-19T01:02:38.284Z,102504.03
2023-05-19T01:05:08.261Z,102507.41
2023-05-19T01:07:37.298Z,102514.41
2023-05-19T01:10:06.692Z,102522.13
2023-05-19T01:12:35.927Z,102531.59
2023-05-19T01:15:05.459Z,102527.00
2023-05-19T01:17:43.090Z,102534.84
2023-05-19T01:20:18.421Z,102519.84
2023-05-19T01:23:25.613Z,102529.56
2023-05-19T01:26:12.988Z,102521.53
2023-05-19T01:29:08.829Z,102541.88
2023-05-19T01:31:40.341Z,102538.44
2023-05-19T01:34:10.829Z,102536.84
2023-05-19T01:36:44.948Z,102549.19
2023-05-19T01:39:15.435Z,102547.47
2023-05-19T01:41:46.810Z,102552.78
2023-05-19T01:44:16.158Z,102547.47
2023-05-19T01:46:48.235Z,102551.09
2023-05-19T01:49:16.651Z,102560.06
2023-05-19T01:51:46.550Z,102563.72
2023-05-19T01:54:15.007Z,102568.19
2023-05-19T01:56:51.202Z,102560.38
2023-05-19T01:59:35.571Z,102564.00
2023-05-19T02:02:14.984Z,102549.91
2023-05-19T02:04:50.658Z,102567.66
2023-05-19T02:07:27.896Z,102555.34
2023-05-19T02:10:05.888Z,102566.00
2023-05-19T02:12:37.839Z,102570.56
2023-05-19T02:15:08.962Z,102580.38
2023-05-19T02:17:42.619Z,102569.06
2023-05-19T02:20:12.721Z,102575.53
2023-05-19T02:22:41.064Z,102577.50
2023-05-19T02:25:10.497Z,102571.56
2023-05-19T02:27:40.124Z,102563.03
2023-05-19T02:30:10.199Z,102561.59
2023-05-19T02:32:40.466Z,102571.56
2023-05-19T02:35:09.897Z,102556.78
2023-05-19T02:37:38.174Z,102561.56
2023-05-19T02:40:07.902Z,102567.16
2023-05-19T02:42:36.279Z,102570.09
2023-05-19T02:45:06.040Z,102571.31
2023-05-19T02:47:36.929Z,102573.44
2023-05-19T02:50:09.027Z,102578.25
2023-05-19T02:52:37.400Z,102567.25
2023-05-19T02:55:07.000Z,102575.50
2023-05-19T02:57:36.431Z,102564.44
2023-05-19T03:00:06.076Z,102566.59
2023-05-19T03:02:35.528Z,102566.06
2023-05-19T03:05:04.195Z,102568.78
2023-05-19T03:07:35.593Z,102567.09
2023-05-19T03:10:05.617Z,102570.72
2023-05-19T03:12:34.578Z,102569.06
2023-05-19T03:15:03.198Z,102584.94
2023-05-19T03:17:34.441Z,102582.34
2023-05-19T03:20:05.361Z,102576.06
2023-05-19T03:22:35.628Z,102588.19
2023-05-19T03:25:04.352Z,102579.16
2023-05-19T03:27:34.865Z,102584.34
2023-05-19T03:30:05.659Z,102581.59
2023-05-19T03:32:37.983Z,102586.03
2023-05-19T03:35:07.066Z,102577.25
2023-05-19T03:37:36.693Z,102594.38
2023-05-19T03:40:06.263Z,102599.16
2023-05-19T03:42:37.359Z,102600.97
2023-05-19T03:45:07.361Z,102597.28
2023-05-19T03:47:35.993Z,102605.97
2023-05-19T03:50:12.290Z,102622.66
2023-05-19T03:52:51.879Z,102617.59
2023-05-19T03:55:26.130Z,102626.75
2023-05-19T03:57:54.589Z,102628.03
2023-05-19T04:00:23.165Z,102623.03
2023-05-19T04:02:52.791Z,102629.22
2023-05-19T04:05:21.178Z,102627.53
2023-05-19T04:07:49.614Z,102620.63
2023-05-19T04:10:21.070Z,102622.47
2023-05-19T04:12:49.441Z,102624.38
2023-05-19T04:15:18.064Z,102624.47
2023-05-19T04:17:46.717Z,102624.53
2023-05-19T04:20:15.065Z,102619.22
2023-05-19T04:22:43.460Z,102627.16
2023-05-19T04:25:12.026Z,102632.44
2023-05-19T04:27:43.999Z,102635.97
2023-05-19T04:30:13.377Z,102628.03
2023-05-19T04:32:42.901Z,102625.38
2023-05-19T04:35:13.748Z,102633.34
2023-05-19T04:37:46.019Z,102613.84
2023-05-19T04:40:16.093Z,102620.91
2023-05-19T04:42:46.104Z,102626.16
2023-05-19T04:45:15.181Z,102622.59
2023-05-19T04:47:48.478Z,102630.59
2023-05-19T04:50:17.616Z,102631.41
2023-05-19T04:52:46.629Z,102628.59
2023-05-19T04:55:17.301Z,102616.06
2023-05-19T04:57:47.991Z,102637.38
2023-05-19T05:00:17.008Z,102641.06
2023-05-19T05:02:57.750Z,102643.63
2023-05-19T05:05:28.700Z,102637.50
2023-05-19T05:07:57.671Z,102640.22
2023-05-19T05:10:29.197Z,102634.84
2023-05-19T05:13:00.874Z,102644.47
2023-05-19T05:15:29.997Z,102637.38
2023-05-19T05:18:01.830Z,102638.22
2023-05-19T05:20:32.825Z,102649.69
2023-05-19T05:23:02.454Z,102647.25
2023-05-19T05:25:33.529Z,102655.34
2023-05-19T05:28:05.417Z,102650.09
2023-05-19T05:30:36.259Z,102661.59
2023-05-19T05:33:06.628Z,102658.94
2023-05-19T05:35:39.161Z,102664.25
2023-05-19T05:38:11.482Z,102659.78
2023-05-19T05:40:40.207Z,102667.69
2023-05-19T05:43:11.244Z,102665.00
2023-05-19T05:45:46.628Z,102665.81
2023-05-19T05:48:15.967Z,102666.63
2023-05-19T05:50:45.504Z,102676.25
2023-05-19T05:53:20.431Z,102671.81
2023-05-19T05:55:53.610Z,102681.47
2023-05-19T05:58:26.531Z,102670.75
2023-05-19T06:00:57.768Z,102691.97
2023-05-19T06:03:27.953Z,102681.38
2023-05-19T06:05:59.355Z,102690.22
2023-05-19T06:08:27.825Z,102687.50
2023-05-19T06:10:56.241Z,102695.41
2023-05-19T06:13:26.137Z,102691.91
2023-05-19T06:15:54.620Z,102700.78
2023-05-19T06:18:28.084Z,102705.19
2023-05-19T06:20:56.563Z,102703.47
2023-05-19T06:23:25.329Z,102706.19
2023-05-19T06:25:54.137Z,102707.19
2023-05-19T06:28:22.378Z,102703.81
2023-05-19T06:30:54.218Z,102704.78
2023-05-19T06:33:36.953Z,102713.66
2023-05-19T06:36:05.961Z,102707.50
2023-05-19T06:38:34.360Z,102707.53
2023-05-19T06:41:02.820Z,102702.22
2023-05-19T06:43:31.231Z,102693.41
2023-05-19T06:46:06.253Z,102702.13
2023-05-19T06:48:35.546Z,102701.94
2023-05-19T06:51:05.787Z,102699.28
2023-05-19T06:53:36.126Z,102693.06
2023-05-19T06:56:09.245Z,102692.91
2023-05-19T06:58:40.629Z,102698.84
2023-05-19T07:01:10.721Z,102695.09
2023-05-19T07:03:45.381Z,102689.72
2023-05-19T07:06:14.608Z,102694.78
2023-05-19T07:08:43.479Z,102698.25
2023-05-19T07:11:14.247Z,102704.72
2023-05-19T07:13:43.743Z,102689.38
2023-05-19T07:16:14.220Z,102704.34
2023-05-19T07:18:42.864Z,102712.81
2023-05-19T07:21:12.241Z,102698.31
2023-05-19T07:23:40.732Z,102698.06
2023-05-19T07:26:09.179Z,102699.59
2023-05-19T07:28:39.866Z,102701.31
2023-05-19T07:31:10.572Z,102695.94
2023-05-19T07:33:40.434Z,102697.44
2023-05-19T07:36:09.133Z,102701.72
2023-05-19T07:38:37.457Z,102694.56
2023-05-19T07:41:05.935Z,102703.28
2023-05-19T07:43:34.281Z,102689.03
2023-05-19T07:46:02.775Z,102709.00
2023-05-19T07:48:31.278Z,102717.50
2023-05-19T07:51:01.080Z,102712.13
2023-05-19T07:53:29.506Z,102700.47
2023-05-19T07:55:58.830Z,102706.41
2023-05-19T07:58:28.229Z,102706.25
2023-05-19T08:00:58.859Z,102712.25
2023-05-19T08:03:27.926Z,102711.16
2023-05-19T08:05:56.648Z,102713.00
2023-05-19T08:08:26.852Z,102711.16
2023-05-19T08:10:55.182Z,102724.38
2023-05-19T08:13:23.503Z,102710.84
2023-05-19T08:15:51.828Z,102693.25
2023-05-19T08:18:20.260Z,102695.00
2023-05-19T08:20:48.684Z,102700.66
2023-05-19T08:23:17.630Z,102712.16
2023-05-19T08:25:47.469Z,102713.25
2023-05-19T08:28:16.007Z,102711.72
2023-05-19T08:30:44.427Z,102716.06
2023-05-19T08:33:13.123Z,102683.94
2023-05-19T08:35:41.485Z,102710.22
2023-05-19T08:38:09.844Z,102714.63
2023-05-19T08:40:39.080Z,102712.66
2023-05-19T08:43:09.132Z,102714.31
2023-05-19T08:45:38.762Z,102712.34
2023-05-19T08:48:08.521Z,102705.25
2023-05-19T08:50:43.586Z,102716.59
2023-05-19T08:53:31.837Z,102700.66
2023-05-19T08:56:10.573Z,102709.47
2023-05-19T08:58:43.988Z,102714.25
2023-05-19T09:01:16.985Z,102726.28
2023-05-19T09:03:46.996Z,102696.94
2023-05-19T09:06:15.476Z,102709.94
2023-05-19T09:08:45.132Z,102715.41
2023-05-19T09:11:14.510Z,102715.44
2023-05-19T09:13:44.407Z,102727.44
2023-05-19T09:16:13.381Z,102722.25
2023-05-19T09:18:42.612Z,102716.03
2023-05-19T09:21:11.973Z,102720.97
2023-05-19T09:23:40.582Z,102710.97
2023-05-19T09:26:09.152Z,102704.22
2023-05-19T09:28:38.464Z,102711.53
2023-05-19T09:31:10.019Z,102709.88
2023-05-19T09:33:39.488Z,102694.22
2023-05-19T09:36:10.889Z,102705.69
2023-05-19T09:38:41.475Z,102712.97
2023-05-19T09:41:10.052Z,102710.59
2023-05-19T09:43:38.464Z,102706.09
2023-05-19T09:46:11.849Z,102707.66
2023-05-19T09:48:41.553Z,102697.63
2023-05-19T09:51:11.957Z,102702.84
2023-05-19T09:53:40.434Z,102711.56
2023-05-19T09:56:10.106Z,102703.66
2023-05-19T09:58:39.254Z,102699.63
2023-05-19T10:01:10.172Z,102704.78
2023-05-19T10:03:40.526Z,102690.19
2023-05-19T10:06:09.461Z,102708.84
2023-05-19T10:08:38.945Z,102699.59
2023-05-19T10:11:07.875Z,102690.22
2023-05-19T10:13:38.687Z,102696.81
2023-05-19T10:16:10.847Z,102692.00
2023-05-19T10:18:40.597Z,102700.78
2023-05-19T10:21:09.767Z,102690.03
2023-05-19T10:23:38.271Z,102693.53
2023-05-19T10:26:07.909Z,102688.31
2023-05-19T10:28:39.103Z,102680.56
2023-05-19T10:31:12.705Z,102678.19
2023-05-19T10:34:02.192Z,102704.00
2023-05-19T10:36:46.205Z,102681.66
2023-05-19T10:39:20.456Z,102682.19
2023-05-19T10:42:00.128Z,102690.41
2023-05-19T10:44:42.260Z,102686.88
2023-05-19T10:47:12.743Z,102692.78
2023-05-19T10:49:41.691Z,102694.59
2023-05-19T10:52:23.131Z,102680.53
2023-05-19T10:54:54.651Z,102703.41
2023-05-19T10:57:28.325Z,102681.91
2023-05-19T10:59:57.540Z,102700.34
2023-05-19T11:02:41.444Z,102690.19
2023-05-19T11:05:12.951Z,102695.13
2023-05-19T11:07:44.656Z,102692.06
2023-05-19T11:10:14.066Z,102689.13
2023-05-19T11:12:44.154Z,102696.94
2023-05-19T11:15:14.632Z,102688.81
2023-05-19T11:17:49.427Z,102695.75
2023-05-19T11:20:25.722Z,102690.09
2023-05-19T11:23:07.224Z,102686.31
2023-05-19T11:25:49.192Z,102702.09
2023-05-19T11:28:19.561Z,102694.72
2023-05-19T11:30:51.893Z,102689.50
2023-05-19T11:33:27.297Z,102695.72
2023-05-19T11:35:58.947Z,102693.91
2023-05-19T11:38:30.232Z,102693.09
2023-05-19T11:40:59.049Z,102693.91
2023-05-19T11:43:27.642Z,102689.34
2023-05-19T11:45:56.948Z,102687.69
2023-05-19T11:48:27.799Z,102691.13
2023-05-19T11:50:56.953Z,102687.88
2023-05-19T11:53:25.412Z,102676.56
2023-05-19T11:55:54.076Z,102683.63
2023-05-19T11:58:27.940Z,102687.03
2023-05-19T12:00:56.685Z,102680.81
2023-05-19T12:03:28.315Z,102682.25
2023-05-19T12:05:57.808Z,102684.69
2023-05-19T12:08:27.224Z,102681.03
2023-05-19T12:10:56.251Z,102678.22
2023-05-19T12:13:26.721Z,102678.28
2023-05-19T12:15:56.140Z,102678.06
2023-05-19T12:18:24.570Z,102673.41
2023-05-19T12:20:54.435Z,102674.72
2023-05-19T12:23:22.866Z,102666.63
2023-05-19T12:25:51.796Z,102676.84
2023-05-19T12:28:21.268Z,102678.38
2023-05-19T12:30:52.414Z,102675.41
2023-05-19T12:33:22.106Z,102680.50
2023-05-19T12:35:51.021Z,102685.59
2023-05-19T12:38:23.964Z,102683.34
2023-05-19T12:40:52.929Z,102680.28
2023-05-19T12:43:22.552Z,102679.06
2023-05-19T12:45:51.281Z,102681.28
2023-05-19T12:48:22.692Z,102688.69
2023-05-19T12:50:54.534Z,102672.28
2023-05-19T12:53:28.790Z,102680.88
2023-05-19T12:55:57.305Z,102687.09
2023-05-19T12:58:27.427Z,102660.56
2023-05-19T13:01:00.882Z,102686.53
2023-05-19T13:03:29.454Z,102691.63
2023-05-19T13:05:59.721Z,102692.34
2023-05-19T13:08:29.879Z,102693.22
2023-05-19T13:10:58.305Z,102687.81
2023-05-19T13:13:26.716Z,102693.69
2023-05-19T13:15:55.619Z,102687.84
2023-05-19T13:18:24.516Z,102678.66
2023-05-19T13:20:53.117Z,102686.25
2023-05-19T13:23:21.584Z,102677.94
2023-05-19T13:25:51.868Z,102672.47
2023-05-19T13:28:20.180Z,102681.72
2023-05-19T13:30:49.760Z,102679.94
2023-05-19T13:33:18.145Z,102679.06
2023-05-19T13:35:46.473Z,102675.50
2023-05-19T13:38:14.875Z,102673.66
2023-05-19T13:40:43.284Z,102671.97
2023-05-19T13:43:12.992Z,102672.47
2023-05-19T13:45:42.805Z,102672.53
2023-05-19T13:48:11.861Z,102670.91
2023-05-19T13:50:40.355Z,102663.84
2023-05-19T13:53:08.879Z,102675.03
2023-05-19T13:55:37.149Z,102674.19
2023-05-19T13:58:05.452Z,102668.91
2023-05-19T14:00:36.317Z,102671.66
2023-05-19T14:03:05.299Z,102681.78
2023-05-19T14:05:33.824Z,102676.56
2023-05-19T14:08:03.748Z,102673.03
2023-05-19T14:10:32.299Z,102684.34
2023-05-19T14:15:34.497Z,102664.63
2023-05-19T14:18:04.992Z,102672.44
2023-05-19T14:20:34.851Z,102674.53
2023-05-19T14:23:03.547Z,102671.91
2023-05-19T14:25:31.900Z,102677.19
2023-05-19T14:28:00.372Z,102674.53
2023-05-19T14:30:29.010Z,102673.03
2023-05-19T14:32:57.674Z,102673.16
2023-05-19T14:35:27.845Z,102669.63
2023-05-19T14:37:56.222Z,102658.19
2023-05-19T14:40:24.561Z,102669.66
2023-05-19T14:42:53.000Z,102670.53
2023-05-19T14:45:22.216Z,102668.00
2023-05-19T14:47:50.840Z,102670.75
2023-05-19T14:50:19.272Z,102664.66
2023-05-19T14:52:49.362Z,102659.31
2023-05-19T14:55:17.879Z,102673.47
2023-05-19T14:57:46.288Z,102674.44
2023-05-19T15:00:15.491Z,102679.88
2023-05-19T15:02:43.996Z,102674.69
2023-05-19T15:05:12.888Z,102673.06
2023-05-19T15:07:41.218Z,102671.44
2023-05-19T15:10:11.440Z,102674.16
2023-05-19T15:12:39.776Z,102669.84
2023-05-19T15:15:09.375Z,102674.44
2023-05-19T15:17:37.718Z,102672.78
2023-05-19T15:20:07.015Z,102675.91
2023-05-19T15:22:35.631Z,102680.56
2023-05-19T15:25:03.979Z,102673.66
2023-05-19T15:27:36.376Z,102687.00
2023-05-19T15:30:04.885Z,102687.13
2023-05-19T15:32:36.609Z,102691.75
2023-05-19T15:35:05.087Z,102695.34
2023-05-19T15:37:33.729Z,102691.06
2023-05-19T15:40:02.180Z,102692.13
2023-05-19T15:42:34.244Z,102692.31
2023-05-19T15:45:02.640Z,102700.38
2023-05-19T15:47:33.253Z,102698.78
2023-05-19T15:50:01.806Z,102701.63
2023-05-19T15:52:32.645Z,102701.78
2023-05-19T15:55:01.111Z,102699.31
2023-05-19T15:57:29.494Z,102706.59
2023-05-19T15:59:59.349Z,102702.25
2023-05-19T16:02:27.971Z,102700.56
2023-05-19T16:04:56.434Z,102707.75
2023-05-19T16:07:24.901Z,102709.59
2023-05-19T16:09:53.169Z,102710.56
2023-05-19T16:12:21.780Z,102711.53
2023-05-19T16:14:50.164Z,102717.84
2023-05-19T16:17:19.985Z,102721.50
2023-05-19T16:19:48.411Z,102711.94
2023-05-19T16:22:18.112Z,102712.84
2023-05-19T16:24:46.453Z,102725.38
2023-05-19T16:27:14.765Z,102729.91
2023-05-19T16:29:43.130Z,102738.00
2023-05-19T16:32:11.650Z,102729.25
2023-05-19T16:34:41.698Z,102739.03
2023-05-19T16:37:10.095Z,102733.84
2023-05-19T16:39:38.459Z,102736.50
2023-05-19T16:42:07.002Z,102748.09
2023-05-19T16:44:35.424Z,102740.22
2023-05-19T16:47:04.232Z,102742.03
2023-05-19T16:49:33.613Z,102743.00
2023-05-19T16:52:03.368Z,102750.16
2023-05-19T16:54:31.817Z,102752.88
2023-05-19T16:57:00.208Z,102750.28
2023-05-19T16:59:28.731Z,102753.91
2023-05-19T17:01:57.256Z,102755.75
2023-05-19T17:04:26.197Z,102750.47
2023-05-19T17:06:55.411Z,102761.97
2023-05-19T17:09:26.453Z,102748.75
2023-05-19T17:11:55.306Z,102760.28
2023-05-19T17:14:23.741Z,102759.41
2023-05-19T17:16:53.046Z,102752.38
2023-05-19T17:19:21.605Z,102763.91
2023-05-19T17:21:50.018Z,102743.63
2023-05-19T17:24:18.376Z,102763.06
2023-05-19T17:26:48.183Z,102761.34
2023-05-19T17:29:16.477Z,102759.59
2023-05-19T17:31:44.845Z,102756.97
2023-05-19T17:34:13.278Z,102751.69
2023-05-19T17:36:41.568Z,102757.88
2023-05-19T17:39:09.926Z,102757.00
2023-05-19T17:41:38.327Z,102751.72
2023-05-19T17:44:08.276Z,102768.50
2023-05-19T17:46:38.916Z,102768.47
2023-05-19T17:49:07.407Z,102764.94
2023-05-19T17:51:36.526Z,102756.09
2023-05-19T17:54:05.478Z,102763.16
2023-05-19T17:56:35.464Z,102765.81
2023-05-19T17:59:04.372Z,102768.44
2023-05-19T18:01:34.801Z,102764.91
2023-05-19T18:04:03.917Z,102766.66
2023-05-19T18:06:32.928Z,102768.41
2023-05-19T18:09:08.027Z,102771.00
2023-05-19T18:11:37.497Z,102767.47
2023-05-19T18:14:05.797Z,102781.56
2023-05-19T18:16:36.210Z,102771.84
2023-05-19T18:19:04.780Z,102777.97
2023-05-19T18:21:33.834Z,102777.06
2023-05-19T18:24:04.440Z,102778.75
2023-05-19T18:26:33.579Z,102787.53
2023-05-19T18:29:04.942Z,102795.44
2023-05-19T18:31:35.266Z,102785.63
2023-05-19T18:34:04.389Z,102792.69
2023-05-19T18:36:32.838Z,102783.75
2023-05-19T18:39:01.870Z,102803.13
2023-05-19T18:41:30.399Z,102801.28
2023-05-19T18:43:58.727Z,102803.81
2023-05-19T18:46:27.273Z,102810.81
2023-05-19T18:48:56.981Z,102816.06
2023-05-19T18:51:25.277Z,102812.44
2023-05-19T18:53:56.454Z,102817.66
2023-05-19T18:56:25.415Z,102824.59
2023-05-19T18:58:53.796Z,102820.09
2023-05-19T19:01:22.244Z,102824.38
2023-05-19T19:03:50.712Z,102819.88
2023-05-19T19:06:22.827Z,102827.78
2023-05-19T19:08:51.239Z,102814.44
2023-05-19T19:11:19.545Z,102818.78
2023-05-19T19:13:51.155Z,102827.53
2023-05-19T19:16:19.914Z,102814.97
2023-05-19T19:18:48.382Z,102824.59
2023-05-19T19:21:16.822Z,102820.91
2023-05-19T19:23:46.509Z,102830.53
2023-05-19T19:26:14.874Z,102832.19
2023-05-19T19:28:43.264Z,102835.56
2023-05-19T19:31:11.687Z,102830.97
2023-05-19T19:33:41.451Z,102836.25
2023-05-19T19:36:09.928Z,102830.00
2023-05-19T19:38:38.415Z,102833.41
2023-05-19T19:41:08.197Z,102833.28
2023-05-19T19:43:36.638Z,102838.50
2023-05-19T19:46:07.098Z,102839.28
2023-05-19T19:48:35.551Z,102834.78
2023-05-19T19:51:03.944Z,102842.56
2023-05-19T19:53:32.276Z,102844.16
2023-05-19T19:56:01.421Z,102831.63
2023-05-19T19:58:31.887Z,102839.31
2023-05-19T20:01:01.230Z,102843.66
2023-05-19T20:03:30.288Z,102848.81
2023-05-19T20:05:58.791Z,102842.56
2023-05-19T20:08:28.034Z,102844.25
2023-05-19T20:10:56.523Z,102844.16
2023-05-19T20:13:24.879Z,102846.69
2023-05-19T20:15:54.545Z,102840.41
2023-05-19T20:18:22.896Z,102841.16
2023-05-19T20:20:51.184Z,102856.84
2023-05-19T20:23:19.452Z,102846.19
2023-05-19T20:26:02.978Z,102846.97
2023-05-19T20:28:36.294Z,102842.38
2023-05-19T20:31:06.352Z,102848.38
2023-05-19T20:33:34.708Z,102851.75
2023-05-19T20:36:03.453Z,102855.19
2023-05-19T20:38:31.831Z,102853.25
2023-05-19T20:41:00.222Z,102852.34
2023-05-19T20:43:28.556Z,102853.03
2023-05-19T20:45:56.912Z,102865.34
2023-05-19T20:48:26.694Z,102833.31
2023-05-19T20:50:55.605Z,102853.72
2023-05-19T20:53:23.921Z,102864.22
2023-05-19T20:55:52.199Z,102866.78
2023-05-19T20:58:20.888Z,102871.13
2023-05-19T21:00:54.207Z,102869.19
2023-05-19T21:03:23.525Z,102867.34
2023-05-19T21:05:53.437Z,102880.50
2023-05-19T21:08:21.885Z,102879.47
2023-05-19T21:10:50.215Z,102867.91
2023-05-19T21:13:19.350Z,102876.63
2023-05-19T21:15:47.903Z,102884.50
2023-05-19T21:18:16.336Z,102881.72
2023-05-19T21:20:44.567Z,102883.28
2023-05-19T21:23:14.330Z,102887.66
2023-05-19T21:25:45.207Z,102886.69
2023-05-19T21:28:14.029Z,102890.91
2023-05-19T21:30:42.295Z,102892.63
2023-05-19T21:33:11.633Z,102893.34
2023-05-19T21:35:40.025Z,102893.25
2023-05-19T21:38:21.968Z,102892.22
2023-05-19T21:40:53.394Z,102893.00
2023-05-19T21:43:22.529Z,102891.00
2023-05-19T21:45:50.957Z,102890.13
2023-05-19T21:48:19.585Z,102883.03
2023-05-19T21:50:52.819Z,102891.72
2023-05-19T21:53:21.118Z,102887.22
2023-05-19T21:55:49.508Z,102881.78
2023-05-19T21:58:19.454Z,102885.28
2023-05-19T22:00:50.785Z,102878.94
2023-05-19T22:03:19.470Z,102878.00
2023-05-19T22:05:50.131Z,102876.97
2023-05-19T22:08:19.499Z,102876.91
2023-05-19T22:10:51.031Z,102874.84
2023-05-19T22:13:21.456Z,102895.13
2023-05-19T22:15:49.980Z,102898.56
2023-05-19T22:18:18.441Z,102894.91
2023-05-19T22:20:46.823Z,102885.94
2023-05-19T22:23:15.183Z,102896.59
2023-05-19T22:25:43.469Z,102900.84
2023-05-19T22:28:11.945Z,102899.84
2023-05-19T22:30:42.181Z,102905.94
2023-05-19T22:33:11.357Z,102905.63
2023-05-19T22:35:39.948Z,102923.13
2023-05-19T22:38:10.311Z,102923.94
2023-05-19T22:40:39.317Z,102923.81
2023-05-19T22:43:07.670Z,102918.53
2023-05-19T22:45:36.639Z,102915.84
2023-05-19T22:48:07.117Z,102923.59
2023-05-19T22:50:35.563Z,102919.97
2023-05-19T22:53:04.027Z,102920.84
2023-05-19T22:55:32.609Z,102913.75
2023-05-19T22:58:01.161Z,102923.28
2023-05-19T23:00:29.727Z,102909.19
2023-05-19T23:02:58.454Z,102915.25
2023-05-19T23:05:28.359Z,102908.03
2023-05-19T23:07:56.748Z,102916.81
2023-05-19T23:10:25.028Z,102909.69
2023-05-19T23:12:53.548Z,102912.19
2023-05-19T23:15:23.169Z,102913.88
2023-05-19T23:17:51.683Z,102925.13
2023-05-19T23:20:20.126Z,102911.00
2023-05-19T23:22:49.924Z,102921.38
2023-05-19T23:25:18.277Z,102911.69
2023-05-19T23:27:47.648Z,102921.16
2023-05-19T23:30:15.972Z,102924.63
2023-05-19T23:32:44.357Z,102922.84
2023-05-19T23:35:14.463Z,102933.09
2023-05-19T23:37:42.778Z,102931.03
2023-05-19T23:40:13.502Z,102925.38
2023-05-19T23:42:41.986Z,102904.00
2023-05-19T23:45:10.755Z,102925.41
2023-05-19T23:47:39.344Z,102930.63
2023-05-19T23:50:08.406Z,102923.56
2023-05-19T23:52:36.744Z,102929.69
2023-05-19T23:55:05.940Z,102930.50
2023-05-19T23:57:35.778Z,102931.28
